createdAt,value
2023-05-19T00:02:27.253Z,13.54
2023-05-19T00:04:55.938Z,13.51
2023-05-19T00:07:31.508Z,13.52
2023-05-19T00:10:00.140Z,13.47
2023-05-19T00:12:28.342Z,13.48
2023-05-19T00:14:56.678Z,13.45
2023-05-19T00:17:26.501Z,13.45
2023-05-19T00:19:54.824Z,13.42
2023-05-19T00:22:22.915Z,13.40
2023-05-19T00:24:50.818Z,13.40
2023-05-19T00:27:18.730Z,13.39
2023-05-19T00:29:46.613Z,13.37
2023-05-19T00:32:14.493Z,13.36
2023-05-19T00:34:43.793Z,13.36
2023-05-19T00:37:11.660Z,13.32
2023-05-19T00:39:39.540Z,13.29
2023-05-19T00:42:07.533Z,13.28
2023-05-19T00:44:41.096Z,13.28
2023-05-19T00:47:09.179Z,13.21
2023-05-19T00:49:37.560Z,13.21
2023-05-19T00:52:08.210Z,13.22
2023-05-19T00:54:36.189Z,13.17
2023-05-19T00:57:04.654Z,13.17
2023-05-19T00:59:32.742Z,13.15
2023-05-19T01:02:02.955Z,13.14
2023-05-19T01:04:34.938Z,13.13
2023-05-19T01:07:02.869Z,13.09
2023-05-19T01:09:32.376Z,13.11
2023-05-19T01:12:00.834Z,13.09
2023-05-19T01:14:30.012Z,13.09
2023-05-19T01:17:05.618Z,13.09
2023-05-19T01:20:02.184Z,13.07
2023-05-19T01:22:49.166Z,13.04
2023-05-19T01:25:47.135Z,12.99
2023-05-19T01:28:32.284Z,13.00
2023-05-19T01:31:04.162Z,12.97
2023-05-19T01:33:33.737Z,12.93
2023-05-19T01:36:04.278Z,12.95
2023-05-19T01:38:35.293Z,12.95
2023-05-19T01:41:05.098Z,12.92
2023-05-19T01:43:34.336Z,12.91
2023-05-19T01:46:04.464Z,12.90
2023-05-19T01:48:34.343Z,12.86
2023-05-19T01:51:02.349Z,12.83
2023-05-19T01:53:30.219Z,12.80
2023-05-19T01:55:58.436Z,12.79
2023-05-19T01:58:36.170Z,12.79
2023-05-19T02:01:15.946Z,12.77
2023-05-19T02:04:02.622Z,12.75
2023-05-19T02:06:38.159Z,12.71
2023-05-19T02:09:13.189Z,12.69
2023-05-19T02:11:48.368Z,12.67
2023-05-19T02:14:21.292Z,12.65
2023-05-19T02:16:51.418Z,12.61
2023-05-19T02:19:24.757Z,12.61
2023-05-19T02:21:52.816Z,12.55
2023-05-19T02:24:23.739Z,12.54
2023-05-19T02:26:52.521Z,12.53
2023-05-19T02:29:20.637Z,12.50
2023-05-19T02:31:50.015Z,12.48
2023-05-19T02:34:18.062Z,12.46
2023-05-19T02:36:46.008Z,12.43
2023-05-19T02:39:13.928Z,12.42
2023-05-19T02:41:42.010Z,12.40
2023-05-19T02:44:10.055Z,12.38
2023-05-19T02:46:38.162Z,12.37
2023-05-19T02:49:07.429Z,12.36
2023-05-19T02:51:35.308Z,12.31
2023-05-19T02:54:03.153Z,12.28
2023-05-19T02:56:31.026Z,12.24
2023-05-19T02:58:59.195Z,12.21
2023-05-19T03:01:27.035Z,12.16
2023-05-19T03:03:55.151Z,12.12
2023-05-19T03:06:24.475Z,12.07
2023-05-19T03:08:52.656Z,12.02
2023-05-19T03:11:20.754Z,11.97
2023-05-19T03:13:48.577Z,11.94
2023-05-19T03:16:16.480Z,11.91
2023-05-19T03:18:44.469Z,11.90
2023-05-19T03:21:12.742Z,11.88
2023-05-19T03:23:41.944Z,11.88
2023-05-19T03:26:10.790Z,11.85
2023-05-19T03:28:38.677Z,11.84
2023-05-19T03:31:06.908Z,11.83
2023-05-19T03:33:39.187Z,11.81
2023-05-19T03:36:08.472Z,11.83
2023-05-19T03:38:39.397Z,11.79
2023-05-19T03:41:08.711Z,11.83
2023-05-19T03:43:36.620Z,11.80
2023-05-19T03:46:06.704Z,11.80
2023-05-19T03:48:43.716Z,11.79
2023-05-19T03:51:26.095Z,11.77
2023-05-19T03:53:57.160Z,11.78
2023-05-19T03:56:27.722Z,11.80
2023-05-19T03:58:55.902Z,11.78
2023-05-19T04:01:23.859Z,11.77
2023-05-19T04:03:52.089Z,11.76
2023-05-19T04:06:20.012Z,11.76
2023-05-19T04:08:47.933Z,11.75
2023-05-19T04:11:16.852Z,11.75
2023-05-19T04:13:46.192Z,11.76
2023-05-19T04:16:14.572Z,11.75
2023-05-19T04:18:42.746Z,11.72
2023-05-19T04:21:10.670Z,11.73
2023-05-19T04:23:39.527Z,11.71
2023-05-19T04:26:07.593Z,11.69
2023-05-19T04:28:38.925Z,11.68
2023-05-19T04:31:10.994Z,11.69
2023-05-19T04:33:39.744Z,11.65
2023-05-19T04:36:10.695Z,11.65
2023-05-19T04:38:40.848Z,11.65
2023-05-19T04:41:11.019Z,11.64
2023-05-19T04:43:44.438Z,11.64
2023-05-19T04:46:14.753Z,11.37
2023-05-19T04:48:45.184Z,11.59
2023-05-19T04:51:14.444Z,11.62
2023-05-19T04:53:43.977Z,11.64
2023-05-19T04:56:15.559Z,11.63
2023-05-19T04:58:45.136Z,11.64
2023-05-19T05:01:15.738Z,11.66
2023-05-19T05:03:44.317Z,11.65
2023-05-19T05:06:12.655Z,11.70
2023-05-19T05:08:41.432Z,11.78
2023-05-19T05:11:10.453Z,11.85
2023-05-19T05:13:38.918Z,11.95
2023-05-19T05:16:08.486Z,12.07
2023-05-19T05:18:39.405Z,12.22
2023-05-19T05:21:08.724Z,12.37
2023-05-19T05:23:37.699Z,12.50
2023-05-19T05:26:11.865Z,12.68
2023-05-19T05:28:40.491Z,12.82
2023-05-19T05:31:08.582Z,12.99
2023-05-19T05:33:39.710Z,13.18
2023-05-19T05:36:10.544Z,13.35
2023-05-19T05:38:38.522Z,13.48
2023-05-19T05:41:06.522Z,13.65
2023-05-19T05:43:35.623Z,13.78
2023-05-19T05:46:05.238Z,13.93
2023-05-19T05:48:33.832Z,14.07
2023-05-19T05:51:03.684Z,14.21
2023-05-19T05:53:38.278Z,14.35
2023-05-19T05:56:08.026Z,14.47
2023-05-19T05:58:44.034Z,14.59
2023-05-19T06:01:12.797Z,14.71
2023-05-19T06:03:41.869Z,14.83
2023-05-19T06:06:12.795Z,14.96
2023-05-19T06:08:41.751Z,15.04
2023-05-19T06:11:09.863Z,15.11
2023-05-19T06:13:41.334Z,15.21
2023-05-19T06:16:12.653Z,15.26
2023-05-19T06:18:44.689Z,15.35
2023-05-19T06:21:14.186Z,15.47
2023-05-19T06:23:43.493Z,15.53
2023-05-19T06:26:13.034Z,15.60
2023-05-19T06:28:40.935Z,15.68
2023-05-19T06:31:08.947Z,15.77
2023-05-19T06:34:03.236Z,15.82
2023-05-19T06:36:35.289Z,15.92
2023-05-19T06:39:03.683Z,15.94
2023-05-19T06:41:32.915Z,16.00
2023-05-19T06:44:01.004Z,16.03
2023-05-19T06:46:33.563Z,16.07
2023-05-19T06:49:01.636Z,16.15
2023-05-19T06:51:35.437Z,16.23
2023-05-19T06:54:03.381Z,16.25
2023-05-19T06:56:31.244Z,16.33
2023-05-19T06:58:59.255Z,16.41
2023-05-19T07:01:32.650Z,16.44
2023-05-19T07:04:00.867Z,16.53
2023-05-19T07:06:29.248Z,16.60
2023-05-19T07:08:58.508Z,16.69
2023-05-19T07:11:27.423Z,16.71
2023-05-19T07:13:55.457Z,16.79
2023-05-19T07:16:28.336Z,16.87
2023-05-19T07:18:56.543Z,16.93
2023-05-19T07:21:24.847Z,16.99
2023-05-19T07:23:52.755Z,17.10
2023-05-19T07:26:22.553Z,17.17
2023-05-19T07:28:51.874Z,17.22
2023-05-19T07:31:20.603Z,17.29
2023-05-19T07:33:48.484Z,17.30
2023-05-19T07:36:16.367Z,17.33
2023-05-19T07:38:44.313Z,17.38
2023-05-19T07:41:12.208Z,17.43
2023-05-19T07:43:41.718Z,17.49
2023-05-19T07:46:11.414Z,17.53
2023-05-19T07:48:39.313Z,17.54
2023-05-19T07:51:10.041Z,17.61
2023-05-19T07:53:38.022Z,17.66
2023-05-19T07:56:06.501Z,17.69
2023-05-19T07:58:34.467Z,17.68
2023-05-19T08:01:03.870Z,17.74
2023-05-19T08:03:32.050Z,17.75
2023-05-19T08:06:00.088Z,17.77
2023-05-19T08:08:28.175Z,17.78
2023-05-19T08:10:56.099Z,17.82
2023-05-19T08:13:23.998Z,17.86
2023-05-19T08:15:51.929Z,17.88
2023-05-19T08:18:21.295Z,17.96
2023-05-19T08:20:49.268Z,17.94
2023-05-19T08:23:17.574Z,17.94
2023-05-19T08:25:45.623Z,18.00
2023-05-19T08:28:13.520Z,18.04
2023-05-19T08:30:41.466Z,18.07
2023-05-19T08:33:09.549Z,18.07
2023-05-19T08:35:38.788Z,18.13
2023-05-19T08:38:06.783Z,18.10
2023-05-19T08:40:36.055Z,18.14
2023-05-19T08:43:04.646Z,18.16
2023-05-19T08:45:34.747Z,18.18
2023-05-19T08:48:04.080Z,18.22
2023-05-19T08:50:33.462Z,18.22
2023-05-19T08:53:18.089Z,18.28
2023-05-19T08:56:01.035Z,18.34
2023-05-19T08:58:29.087Z,18.31
2023-05-19T09:00:58.967Z,18.40
2023-05-19T09:03:29.118Z,18.37
2023-05-19T09:05:57.311Z,18.32
2023-05-19T09:08:26.746Z,18.40
2023-05-19T09:10:54.579Z,18.45
2023-05-19T09:13:22.577Z,18.48
2023-05-19T09:15:53.377Z,18.51
2023-05-19T09:18:21.272Z,18.55
2023-05-19T09:20:49.232Z,18.62
2023-05-19T09:23:18.300Z,18.65
2023-05-19T09:25:51.770Z,18.72
2023-05-19T09:28:27.025Z,18.75
2023-05-19T09:31:05.314Z,18.79
2023-05-19T09:33:35.283Z,18.83
2023-05-19T09:36:06.077Z,18.82
2023-05-19T09:38:34.381Z,18.87
2023-05-19T09:41:03.841Z,18.96
2023-05-19T09:43:33.510Z,18.98
2023-05-19T09:46:02.312Z,19.03
2023-05-19T09:48:30.349Z,19.05
2023-05-19T09:50:58.875Z,19.10
2023-05-19T09:53:27.047Z,19.15
2023-05-19T09:55:57.836Z,19.18
2023-05-19T09:58:28.066Z,19.26
2023-05-19T10:00:56.907Z,19.30
2023-05-19T10:03:24.945Z,19.27
2023-05-19T10:05:54.795Z,19.37
2023-05-19T10:08:24.488Z,19.40
2023-05-19T10:10:52.562Z,19.46
2023-05-19T10:13:22.461Z,19.49
2023-05-19T10:18:26.868Z,19.59
2023-05-19T10:20:55.774Z,19.61
2023-05-19T10:23:24.016Z,19.70
2023-05-19T10:25:53.631Z,19.76
2023-05-19T10:28:27.946Z,19.83
2023-05-19T10:31:01.488Z,19.85
2023-05-19T10:33:40.194Z,19.90
2023-05-19T10:36:26.571Z,19.95
2023-05-19T10:39:01.344Z,19.97
2023-05-19T10:41:38.540Z,20.03
2023-05-19T10:44:14.542Z,20.02
2023-05-19T10:46:44.325Z,20.06
2023-05-19T10:49:21.277Z,20.13
2023-05-19T10:51:49.605Z,20.13
2023-05-19T10:54:20.951Z,20.14
2023-05-19T10:56:48.940Z,20.20
2023-05-19T10:59:33.200Z,20.25
2023-05-19T11:02:06.520Z,20.29
2023-05-19T11:04:41.332Z,20.36
2023-05-19T11:07:10.459Z,20.39
2023-05-19T11:09:42.014Z,20.47
2023-05-19T11:12:11.628Z,20.47
2023-05-19T11:14:41.126Z,20.54
2023-05-19T11:17:15.759Z,20.64
2023-05-19T11:19:54.915Z,20.65
2023-05-19T11:22:25.221Z,20.72
2023-05-19T11:24:55.449Z,20.74
2023-05-19T11:27:28.297Z,20.78
2023-05-19T11:29:57.403Z,20.85
2023-05-19T11:32:30.620Z,20.92
2023-05-19T11:34:59.037Z,20.93
2023-05-19T11:37:28.688Z,20.97
2023-05-19T11:39:56.719Z,20.99
2023-05-19T11:42:25.097Z,21.03
2023-05-19T11:44:56.654Z,21.06
2023-05-19T11:47:24.772Z,21.02
2023-05-19T11:49:56.673Z,21.09
2023-05-19T11:52:25.158Z,21.01
2023-05-19T11:54:53.152Z,20.99
2023-05-19T11:57:21.402Z,20.98
2023-05-19T11:59:49.915Z,20.90
2023-05-19T12:02:20.078Z,20.91
2023-05-19T12:04:49.278Z,20.88
2023-05-19T12:07:19.887Z,20.89
2023-05-19T12:09:48.453Z,20.89
2023-05-19T12:12:17.477Z,20.89
2023-05-19T12:14:47.110Z,20.90
2023-05-19T12:17:16.531Z,20.92
2023-05-19T12:19:45.857Z,20.89
2023-05-19T12:22:14.265Z,20.92
2023-05-19T12:24:45.141Z,20.95
2023-05-19T12:27:14.087Z,20.95
2023-05-19T12:29:42.059Z,20.94
2023-05-19T12:32:10.838Z,20.94
2023-05-19T12:34:39.461Z,20.93
2023-05-19T12:37:07.387Z,20.91
2023-05-19T12:39:35.336Z,20.93
2023-05-19T12:42:06.841Z,20.94
2023-05-19T12:44:38.380Z,20.95
2023-05-19T12:47:07.911Z,20.92
2023-05-19T12:49:35.804Z,20.96
2023-05-19T12:52:07.216Z,20.96
2023-05-19T12:54:38.721Z,20.94
2023-05-19T12:57:08.516Z,20.94
2023-05-19T12:59:38.639Z,20.89
2023-05-19T13:02:07.676Z,20.85
2023-05-19T13:04:36.067Z,20.81
2023-05-19T13:07:03.973Z,20.77
2023-05-19T13:09:35.021Z,20.76
2023-05-19T13:12:04.708Z,20.71
2023-05-19T13:14:33.957Z,20.70
2023-05-19T13:17:02.015Z,20.67
2023-05-19T13:19:30.175Z,20.64
2023-05-19T13:21:58.755Z,20.60
2023-05-19T13:24:26.727Z,20.59
2023-05-19T13:26:55.253Z,20.58
2023-05-19T13:29:23.901Z,20.54
2023-05-19T13:31:53.165Z,20.56
2023-05-19T13:34:21.004Z,20.50
2023-05-19T13:36:48.886Z,20.49
2023-05-19T13:39:16.837Z,20.48
2023-05-19T13:41:44.669Z,20.46
2023-05-19T13:44:12.463Z,20.44
2023-05-19T13:46:45.827Z,20.44
2023-05-19T13:49:15.769Z,20.44
2023-05-19T13:51:44.562Z,20.42
2023-05-19T13:54:12.455Z,20.38
2023-05-19T13:56:40.514Z,20.34
2023-05-19T13:59:08.528Z,20.37
2023-05-19T14:01:37.052Z,20.38
2023-05-19T14:04:05.461Z,20.38
2023-05-19T14:06:34.868Z,20.41
2023-05-19T14:09:02.719Z,20.44
2023-05-19T14:11:30.609Z,20.43
2023-05-19T14:13:58.497Z,20.47
2023-05-19T14:16:28.707Z,20.52
2023-05-19T14:18:56.834Z,20.52
2023-05-19T14:21:24.905Z,20.53
2023-05-19T14:23:54.073Z,20.54
2023-05-19T14:26:21.983Z,20.50
2023-05-19T14:28:49.893Z,20.52
2023-05-19T14:31:17.787Z,20.52
2023-05-19T14:33:45.810Z,20.48
2023-05-19T14:36:13.719Z,20.47
2023-05-19T14:38:42.874Z,20.48
2023-05-19T14:41:12.160Z,20.47
2023-05-19T14:43:42.136Z,20.40
2023-05-19T14:46:10.134Z,20.44
2023-05-19T14:48:38.034Z,20.44
2023-05-19T14:51:06.299Z,20.45
2023-05-19T14:53:34.199Z,20.46
2023-05-19T14:56:02.117Z,20.45
2023-05-19T14:58:31.680Z,20.47
2023-05-19T15:00:59.985Z,20.47
2023-05-19T15:03:27.920Z,20.43
2023-05-19T15:05:55.789Z,20.43
2023-05-19T15:08:23.622Z,20.43
2023-05-19T15:10:51.612Z,20.38
2023-05-19T15:13:21.459Z,20.40
2023-05-19T15:16:04.694Z,20.39
2023-05-19T15:18:42.897Z,20.36
2023-05-19T15:21:10.860Z,20.37
2023-05-19T15:23:38.725Z,20.36
2023-05-19T15:26:06.585Z,20.35
2023-05-19T15:28:34.554Z,20.33
2023-05-19T15:31:03.814Z,20.33
2023-05-19T15:33:31.774Z,20.29
2023-05-19T15:35:59.661Z,20.26
2023-05-19T15:38:30.164Z,20.27
2023-05-19T15:40:58.974Z,20.22
2023-05-19T15:43:26.831Z,20.21
2023-05-19T15:45:56.218Z,20.19
2023-05-19T15:48:28.753Z,20.18
2023-05-19T15:50:58.108Z,19.83
2023-05-19T15:53:26.014Z,20.01
2023-05-19T15:55:53.975Z,20.04
2023-05-19T15:58:22.038Z,19.99
2023-05-19T16:00:50.164Z,19.97
2023-05-19T16:03:18.053Z,19.94
2023-05-19T16:05:47.298Z,19.91
2023-05-19T16:08:15.533Z,19.86
2023-05-19T16:10:43.389Z,19.81
2023-05-19T16:13:11.190Z,19.80
2023-05-19T16:15:39.041Z,19.77
2023-05-19T16:18:07.096Z,19.75
2023-05-19T16:20:35.252Z,19.67
2023-05-19T16:23:04.793Z,19.70
2023-05-19T16:25:32.759Z,19.63
2023-05-19T16:28:00.720Z,19.60
2023-05-19T16:30:28.944Z,19.56
2023-05-19T16:32:56.918Z,19.56
2023-05-19T16:35:25.047Z,19.57
2023-05-19T16:37:53.019Z,19.56
2023-05-19T16:40:22.234Z,19.55
2023-05-19T16:42:50.158Z,19.49
2023-05-19T16:45:18.347Z,19.51
2023-05-19T16:47:46.511Z,19.52
2023-05-19T16:50:14.550Z,19.53
2023-05-19T16:52:42.521Z,19.53
2023-05-19T16:55:11.005Z,19.52
2023-05-19T16:57:40.412Z,19.55
2023-05-19T17:00:09.796Z,19.54
2023-05-19T17:02:37.833Z,19.55
2023-05-19T17:05:06.344Z,19.53
2023-05-19T17:07:34.393Z,19.53
2023-05-19T17:10:02.572Z,19.53
2023-05-19T17:12:30.591Z,19.53
2023-05-19T17:15:00.037Z,19.57
2023-05-19T17:17:28.115Z,19.57
2023-05-19T17:19:56.673Z,19.61
2023-05-19T17:22:24.758Z,19.63
2023-05-19T17:24:53.016Z,19.67
2023-05-19T17:27:21.109Z,19.73
2023-05-19T17:29:52.888Z,19.79
2023-05-19T17:32:25.833Z,19.79
2023-05-19T17:34:54.137Z,19.82
2023-05-19T17:37:25.660Z,19.87
2023-05-19T17:39:53.817Z,19.82
2023-05-19T17:42:21.993Z,19.83
2023-05-19T17:44:50.075Z,19.85
2023-05-19T17:47:18.170Z,19.81
2023-05-19T17:49:47.871Z,19.80
2023-05-19T17:52:16.753Z,19.77
2023-05-19T17:54:45.214Z,19.75
2023-05-19T17:57:14.509Z,19.72
2023-05-19T17:59:43.201Z,19.66
2023-05-19T18:02:13.100Z,19.61
2023-05-19T18:04:42.318Z,19.59
2023-05-19T18:07:12.414Z,19.54
2023-05-19T18:09:44.976Z,19.51
2023-05-19T18:12:13.066Z,19.46
2023-05-19T18:14:41.287Z,19.43
2023-05-19T18:17:09.230Z,19.39
2023-05-19T18:19:37.288Z,19.35
2023-05-19T18:22:05.646Z,19.33
2023-05-19T18:24:34.937Z,19.32
2023-05-19T18:27:03.275Z,19.29
2023-05-19T18:29:31.277Z,19.25
2023-05-19T18:32:03.693Z,19.24
2023-05-19T18:34:42.900Z,19.17
2023-05-19T18:37:12.026Z,19.16
2023-05-19T18:39:41.359Z,19.16
2023-05-19T18:42:09.759Z,19.13
2023-05-19T18:44:38.084Z,19.08
2023-05-19T18:47:06.454Z,19.02
2023-05-19T18:49:34.751Z,18.99
2023-05-19T18:52:02.776Z,18.95
2023-05-19T18:54:32.389Z,18.92
2023-05-19T18:57:03.183Z,18.90
2023-05-19T18:59:31.131Z,18.83
2023-05-19T19:01:59.030Z,18.79
2023-05-19T19:04:27.039Z,18.74
2023-05-19T19:06:55.063Z,18.71
2023-05-19T19:09:23.133Z,18.68
2023-05-19T19:11:51.068Z,18.66
2023-05-19T19:14:20.714Z,18.63
2023-05-19T19:16:48.730Z,18.59
2023-05-19T19:19:16.951Z,18.55
2023-05-19T19:21:45.245Z,18.52
2023-05-19T19:28:36.438Z,18.37
2023-05-19T19:31:05.852Z,18.35
2023-05-19T19:33:33.878Z,18.32
2023-05-19T19:36:01.808Z,18.30
2023-05-19T19:38:29.802Z,18.25
2023-05-19T19:40:57.690Z,18.22
2023-05-19T19:43:25.505Z,18.20
2023-05-19T19:45:59.914Z,18.20
2023-05-19T19:48:29.626Z,18.15
2023-05-19T19:50:58.082Z,18.11
2023-05-19T19:53:26.284Z,18.08
2023-05-19T19:55:58.539Z,18.07
2023-05-19T19:58:27.030Z,18.00
2023-05-19T20:00:58.563Z,18.00
2023-05-19T20:03:26.863Z,17.95
2023-05-19T20:05:57.936Z,17.93
2023-05-19T20:08:26.829Z,17.89
2023-05-19T20:10:55.098Z,17.85
2023-05-19T20:13:23.029Z,17.82
2023-05-19T20:15:51.149Z,17.79
2023-05-19T20:18:19.166Z,17.77
2023-05-19T20:20:47.024Z,17.74
2023-05-19T20:23:16.313Z,17.74
2023-05-19T20:26:02.498Z,17.69
2023-05-19T20:28:32.223Z,17.65
2023-05-19T20:31:00.852Z,17.64
2023-05-19T20:33:29.135Z,17.60
2023-05-19T20:35:57.064Z,17.58
2023-05-19T20:38:26.572Z,17.58
2023-05-19T20:40:54.880Z,17.52
2023-05-19T20:43:22.950Z,17.50
2023-05-19T20:45:51.381Z,17.46
2023-05-19T20:48:19.472Z,17.42
2023-05-19T20:50:47.583Z,17.37
2023-05-19T20:53:15.764Z,17.35
2023-05-19T20:55:46.802Z,17.34
2023-05-19T20:58:14.725Z,17.28
2023-05-19T21:00:42.588Z,17.25
2023-05-19T21:03:11.580Z,17.23
2023-05-19T21:05:39.602Z,17.18
2023-05-19T21:08:12.694Z,17.16
2023-05-19T21:10:40.934Z,17.12
2023-05-19T21:13:10.155Z,17.10
2023-05-19T21:15:38.250Z,17.04
2023-05-19T21:18:06.270Z,17.00
2023-05-19T21:20:34.670Z,16.96
2023-05-19T21:23:02.703Z,16.95
2023-05-19T21:25:31.014Z,16.89
2023-05-19T21:27:59.266Z,16.88
2023-05-19T21:30:28.634Z,16.86
2023-05-19T21:32:56.756Z,16.82
2023-05-19T21:35:24.713Z,16.80
2023-05-19T21:37:52.642Z,16.78
2023-05-19T21:40:20.690Z,16.74
2023-05-19T21:42:48.532Z,16.72
2023-05-19T21:45:16.432Z,16.70
2023-05-19T21:47:45.813Z,16.70
2023-05-19T21:50:15.699Z,16.67
2023-05-19T21:52:43.722Z,16.64
2023-05-19T21:55:11.710Z,16.62
2023-05-19T21:57:39.694Z,16.61
2023-05-19T22:00:08.941Z,16.60
2023-05-19T22:02:39.638Z,16.55
2023-05-19T22:05:09.863Z,16.57
2023-05-19T22:07:37.713Z,16.54
2023-05-19T22:10:06.314Z,16.52
2023-05-19T22:12:35.586Z,16.50
2023-05-19T22:15:03.615Z,16.46
2023-05-19T22:17:31.821Z,16.45
2023-05-19T22:19:59.735Z,16.42
2023-05-19T22:22:29.008Z,16.43
2023-05-19T22:24:57.001Z,16.39
2023-05-19T22:27:24.863Z,16.39
2023-05-19T22:29:52.742Z,16.38
2023-05-19T22:32:20.635Z,16.35
2023-05-19T22:34:48.637Z,16.34
2023-05-19T22:37:16.551Z,16.32
2023-05-19T22:39:46.159Z,16.32
2023-05-19T22:42:14.064Z,16.28
2023-05-19T22:44:41.969Z,16.26
2023-05-19T22:47:13.369Z,16.24
2023-05-19T22:49:42.390Z,16.22
2023-05-19T22:52:12.010Z,16.22
2023-05-19T22:54:40.246Z,16.19
2023-05-19T22:57:09.534Z,16.18
2023-05-19T22:59:38.273Z,16.14
2023-05-19T23:02:06.582Z,16.13
2023-05-19T23:04:35.210Z,16.10
2023-05-19T23:07:03.138Z,16.08
2023-05-19T23:09:31.062Z,16.05
2023-05-19T23:11:58.897Z,16.04
2023-05-19T23:14:28.190Z,16.03
2023-05-19T23:16:56.109Z,16.00
2023-05-19T23:19:24.335Z,15.97
2023-05-19T23:21:52.290Z,15.96
2023-05-19T23:24:20.140Z,15.94
2023-05-19T23:26:47.965Z,15.93
2023-05-19T23:29:15.887Z,15.91
2023-05-19T23:31:45.797Z,15.89
2023-05-19T23:34:14.068Z,15.84
2023-05-19T23:36:41.998Z,15.83
2023-05-19T23:39:10.016Z,15.82
2023-05-19T23:41:37.993Z,15.79
2023-05-19T23:44:06.460Z,15.77
2023-05-19T23:46:34.609Z,15.75
2023-05-19T23:49:04.039Z,15.73
2023-05-19T23:51:32.323Z,15.69
2023-05-19T23:54:00.446Z,15.67
2023-05-19T23:56:28.280Z,15.65
2023-05-19T23:58:56.144Z,15.64
